sensor_id;sensor_type;location;lat;lon;timestamp;temperature;humidity
4215;DHT22;2121;48.062;7.850;2023-04-25T00:01:24;10.00;95.60
4215;DHT22;2121;48.062;7.850;2023-04-25T00:03:50;10.00;95.80
4215;DHT22;2121;48.062;7.850;2023-04-25T00:06:16;9.80;96.80
4215;DHT22;2121;48.062;7.850;2023-04-25T00:08:43;9.60;97.40
4215;DHT22;2121;48.062;7.850;2023-04-25T00:11:09;9.50;97.80
4215;DHT22;2121;48.062;7.850;2023-04-25T00:13:35;9.30;98.50
4215;DHT22;2121;48.062;7.850;2023-04-25T00:16:01;9.20;99.00
4215;DHT22;2121;48.062;7.850;2023-04-25T00:18:27;9.10;99.50
4215;DHT22;2121;48.062;7.850;2023-04-25T00:20:54;9.10;99.30
4215;DHT22;2121;48.062;7.850;2023-04-25T00:23:21;9.10;99.20
4215;DHT22;2121;48.062;7.850;2023-04-25T00:25:48;9.20;99.30
4215;DHT22;2121;48.062;7.850;2023-04-25T00:28:15;9.20;99.30
4215;DHT22;2121;48.062;7.850;2023-04-25T00:30:41;9.30;98.90
4215;DHT22;2121;48.062;7.850;2023-04-25T00:33:08;9.30;99.00
4215;DHT22;2121;48.062;7.850;2023-04-25T00:35:35;9.30;98.70
4215;DHT22;2121;48.062;7.850;2023-04-25T00:38:01;9.30;98.60
4215;DHT22;2121;48.062;7.850;2023-04-25T00:40:27;9.30;98.60
4215;DHT22;2121;48.062;7.850;2023-04-25T00:42:53;9.30;98.70
4215;DHT22;2121;48.062;7.850;2023-04-25T00:45:19;9.20;98.90
4215;DHT22;2121;48.062;7.850;2023-04-25T00:47:45;9.20;99.00
4215;DHT22;2121;48.062;7.850;2023-04-25T00:50:12;9.20;99.20
4215;DHT22;2121;48.062;7.850;2023-04-25T00:52:40;9.10;99.20
4215;DHT22;2121;48.062;7.850;2023-04-25T00:55:07;9.10;99.30
4215;DHT22;2121;48.062;7.850;2023-04-25T00:57:34;9.10;99.60
4215;DHT22;2121;48.062;7.850;2023-04-25T01:00:00;9.10;99.70
4215;DHT22;2121;48.062;7.850;2023-04-25T01:02:26;9.10;99.70
4215;DHT22;2121;48.062;7.850;2023-04-25T01:04:53;9.00;99.90
4215;DHT22;2121;48.062;7.850;2023-04-25T01:07:18;9.10;99.90
4215;DHT22;2121;48.062;7.850;2023-04-25T01:09:45;9.00;99.90
4215;DHT22;2121;48.062;7.850;2023-04-25T01:12:11;8.90;99.90
4215;DHT22;2121;48.062;7.850;2023-04-25T01:14:38;9.00;99.90
4215;DHT22;2121;48.062;7.850;2023-04-25T01:17:05;8.90;99.90
4215;DHT22;2121;48.062;7.850;2023-04-25T01:19:33;8.80;99.90
4215;DHT22;2121;48.062;7.850;2023-04-25T01:21:58;8.80;99.90
4215;DHT22;2121;48.062;7.850;2023-04-25T01:24:25;8.80;99.90
4215;DHT22;2121;48.062;7.850;2023-04-25T01:26:51;8.70;99.90
4215;DHT22;2121;48.062;7.850;2023-04-25T01:29:20;8.50;99.90
4215;DHT22;2121;48.062;7.850;2023-04-25T01:31:46;8.40;99.90
4215;DHT22;2121;48.062;7.850;2023-04-25T01:34:12;8.40;99.90
4215;DHT22;2121;48.062;7.850;2023-04-25T01:36:39;8.30;99.90
4215;DHT22;2121;48.062;7.850;2023-04-25T01:39:06;8.20;99.90
4215;DHT22;2121;48.062;7.850;2023-04-25T01:41:32;8.20;99.90
4215;DHT22;2121;48.062;7.850;2023-04-25T01:44:00;8.20;99.90
4215;DHT22;2121;48.062;7.850;2023-04-25T01:46:26;8.30;99.90
4215;DHT22;2121;48.062;7.850;2023-04-25T01:48:52;8.30;99.90
4215;DHT22;2121;48.062;7.850;2023-04-25T01:51:18;8.40;99.90
4215;DHT22;2121;48.062;7.850;2023-04-25T01:53:45;8.40;99.90
4215;DHT22;2121;48.062;7.850;2023-04-25T01:56:10;8.50;99.90
4215;DHT22;2121;48.062;7.850;2023-04-25T01:58:36;8.50;99.90
4215;DHT22;2121;48.062;7.850;2023-04-25T02:01:02;8.70;99.90
4215;DHT22;2121;48.062;7.850;2023-04-25T02:03:30;8.80;99.90
4215;DHT22;2121;48.062;7.850;2023-04-25T02:05:56;8.80;99.90
4215;DHT22;2121;48.062;7.850;2023-04-25T02:08:22;8.80;99.90
4215;DHT22;2121;48.062;7.850;2023-04-25T02:10:48;8.70;99.90
4215;DHT22;2121;48.062;7.850;2023-04-25T02:13:14;8.70;99.90
4215;DHT22;2121;48.062;7.850;2023-04-25T02:15:39;8.70;99.90
4215;DHT22;2121;48.062;7.850;2023-04-25T02:18:06;8.70;99.90
4215;DHT22;2121;48.062;7.850;2023-04-25T02:20:32;8.60;99.90
4215;DHT22;2121;48.062;7.850;2023-04-25T02:22:58;8.70;99.90
4215;DHT22;2121;48.062;7.850;2023-04-25T02:25:24;8.70;99.90
4215;DHT22;2121;48.062;7.850;2023-04-25T02:27:50;8.60;99.90
4215;DHT22;2121;48.062;7.850;2023-04-25T02:30:16;8.60;99.90
4215;DHT22;2121;48.062;7.850;2023-04-25T02:32:42;8.60;99.90
4215;DHT22;2121;48.062;7.850;2023-04-25T02:35:09;8.70;99.90
4215;DHT22;2121;48.062;7.850;2023-04-25T02:37:38;8.80;99.90
4215;DHT22;2121;48.062;7.850;2023-04-25T02:40:05;8.80;99.90
4215;DHT22;2121;48.062;7.850;2023-04-25T02:42:32;8.80;99.90
4215;DHT22;2121;48.062;7.850;2023-04-25T02:44:58;8.80;99.90
4215;DHT22;2121;48.062;7.850;2023-04-25T02:47:23;8.70;99.90
4215;DHT22;2121;48.062;7.850;2023-04-25T02:49:49;8.80;99.90
4215;DHT22;2121;48.062;7.850;2023-04-25T02:52:15;8.70;99.90
4215;DHT22;2121;48.062;7.850;2023-04-25T02:54:41;8.80;99.90
4215;DHT22;2121;48.062;7.850;2023-04-25T02:57:07;8.80;99.90
4215;DHT22;2121;48.062;7.850;2023-04-25T02:59:34;8.90;99.90
4215;DHT22;2121;48.062;7.850;2023-04-25T03:01:59;8.90;99.90
4215;DHT22;2121;48.062;7.850;2023-04-25T03:04:26;8.90;99.90
4215;DHT22;2121;48.062;7.850;2023-04-25T03:06:52;8.80;99.90
4215;DHT22;2121;48.062;7.850;2023-04-25T03:09:18;8.80;99.90
4215;DHT22;2121;48.062;7.850;2023-04-25T03:11:45;8.80;99.90
4215;DHT22;2121;48.062;7.850;2023-04-25T03:14:12;8.80;99.90
4215;DHT22;2121;48.062;7.850;2023-04-25T03:16:38;8.70;99.90
4215;DHT22;2121;48.062;7.850;2023-04-25T03:19:04;8.80;99.90
4215;DHT22;2121;48.062;7.850;2023-04-25T03:21:32;8.80;99.90
4215;DHT22;2121;48.062;7.850;2023-04-25T03:24:02;8.80;99.90
4215;DHT22;2121;48.062;7.850;2023-04-25T03:26:28;8.80;99.90
4215;DHT22;2121;48.062;7.850;2023-04-25T03:28:54;8.70;99.90
4215;DHT22;2121;48.062;7.850;2023-04-25T03:31:20;8.70;99.90
4215;DHT22;2121;48.062;7.850;2023-04-25T03:33:46;8.70;99.90
4215;DHT22;2121;48.062;7.850;2023-04-25T03:36:12;8.60;99.90
4215;DHT22;2121;48.062;7.850;2023-04-25T03:38:37;8.70;99.90
4215;DHT22;2121;48.062;7.850;2023-04-25T03:41:03;8.50;99.90
4215;DHT22;2121;48.062;7.850;2023-04-25T03:43:29;8.40;99.90
4215;DHT22;2121;48.062;7.850;2023-04-25T03:45:54;8.30;99.90
4215;DHT22;2121;48.062;7.850;2023-04-25T03:48:20;8.30;99.90
4215;DHT22;2121;48.062;7.850;2023-04-25T03:50:47;8.20;99.90
4215;DHT22;2121;48.062;7.850;2023-04-25T03:53:13;8.10;99.90
4215;DHT22;2121;48.062;7.850;2023-04-25T03:55:39;8.00;99.90
4215;DHT22;2121;48.062;7.850;2023-04-25T03:58:05;7.90;99.90
4215;DHT22;2121;48.062;7.850;2023-04-25T04:00:31;7.70;99.90
4215;DHT22;2121;48.062;7.850;2023-04-25T04:02:57;7.50;99.90
4215;DHT22;2121;48.062;7.850;2023-04-25T04:05:22;7.30;99.90
4215;DHT22;2121;48.062;7.850;2023-04-25T04:07:48;7.20;99.90
4215;DHT22;2121;48.062;7.850;2023-04-25T04:10:14;7.10;99.90
4215;DHT22;2121;48.062;7.850;2023-04-25T04:12:40;7.00;99.90
4215;DHT22;2121;48.062;7.850;2023-04-25T04:15:06;7.00;99.90
4215;DHT22;2121;48.062;7.850;2023-04-25T04:17:33;6.90;99.90
4215;DHT22;2121;48.062;7.850;2023-04-25T04:19:59;6.90;99.90
4215;DHT22;2121;48.062;7.850;2023-04-25T04:22:25;6.90;99.90
4215;DHT22;2121;48.062;7.850;2023-04-25T04:24:51;6.90;99.90
4215;DHT22;2121;48.062;7.850;2023-04-25T04:27:18;6.90;99.90
4215;DHT22;2121;48.062;7.850;2023-04-25T04:29:45;6.90;99.90
4215;DHT22;2121;48.062;7.850;2023-04-25T04:32:13;6.90;99.90
4215;DHT22;2121;48.062;7.850;2023-04-25T04:34:39;7.00;99.90
4215;DHT22;2121;48.062;7.850;2023-04-25T04:37:06;7.00;99.90
4215;DHT22;2121;48.062;7.850;2023-04-25T04:39:33;7.30;99.90
4215;DHT22;2121;48.062;7.850;2023-04-25T04:41:59;7.30;99.90
4215;DHT22;2121;48.062;7.850;2023-04-25T04:44:26;7.40;99.90
4215;DHT22;2121;48.062;7.850;2023-04-25T04:46:53;7.30;99.90
4215;DHT22;2121;48.062;7.850;2023-04-25T04:49:20;7.30;99.90
4215;DHT22;2121;48.062;7.850;2023-04-25T04:51:46;7.20;99.90
4215;DHT22;2121;48.062;7.850;2023-04-25T04:54:12;7.20;99.90
4215;DHT22;2121;48.062;7.850;2023-04-25T04:56:38;7.20;99.90
4215;DHT22;2121;48.062;7.850;2023-04-25T04:59:04;7.20;99.90
4215;DHT22;2121;48.062;7.850;2023-04-25T05:01:30;7.20;99.90
4215;DHT22;2121;48.062;7.850;2023-04-25T05:03:56;7.30;99.90
4215;DHT22;2121;48.062;7.850;2023-04-25T05:06:26;7.40;99.90
4215;DHT22;2121;48.062;7.850;2023-04-25T05:08:54;7.50;99.90
4215;DHT22;2121;48.062;7.850;2023-04-25T05:11:24;7.70;99.90
4215;DHT22;2121;48.062;7.850;2023-04-25T05:13:52;7.70;99.90
4215;DHT22;2121;48.062;7.850;2023-04-25T05:16:18;7.90;99.90
4215;DHT22;2121;48.062;7.850;2023-04-25T05:18:44;7.80;99.90
4215;DHT22;2121;48.062;7.850;2023-04-25T05:21:10;7.80;99.90
4215;DHT22;2121;48.062;7.850;2023-04-25T05:23:36;7.90;99.90
4215;DHT22;2121;48.062;7.850;2023-04-25T05:26:01;8.00;99.90
4215;DHT22;2121;48.062;7.850;2023-04-25T05:28:27;8.10;99.90
4215;DHT22;2121;48.062;7.850;2023-04-25T05:30:53;8.00;99.90
4215;DHT22;2121;48.062;7.850;2023-04-25T05:33:19;8.00;99.90
4215;DHT22;2121;48.062;7.850;2023-04-25T05:35:45;7.80;99.90
4215;DHT22;2121;48.062;7.850;2023-04-25T05:38:12;7.70;99.90
4215;DHT22;2121;48.062;7.850;2023-04-25T05:40:38;7.60;99.90
4215;DHT22;2121;48.062;7.850;2023-04-25T05:43:03;7.50;99.90
4215;DHT22;2121;48.062;7.850;2023-04-25T05:45:29;7.50;99.90
4215;DHT22;2121;48.062;7.850;2023-04-25T05:47:55;7.40;99.90
4215;DHT22;2121;48.062;7.850;2023-04-25T05:50:21;7.30;99.90
4215;DHT22;2121;48.062;7.850;2023-04-25T05:52:46;7.20;99.90
4215;DHT22;2121;48.062;7.850;2023-04-25T05:55:12;7.10;99.90
4215;DHT22;2121;48.062;7.850;2023-04-25T05:57:38;7.00;99.90
4215;DHT22;2121;48.062;7.850;2023-04-25T06:00:08;6.90;99.90
4215;DHT22;2121;48.062;7.850;2023-04-25T06:02:35;6.80;99.90
4215;DHT22;2121;48.062;7.850;2023-04-25T06:05:01;6.70;99.90
4215;DHT22;2121;48.062;7.850;2023-04-25T06:07:29;6.70;99.90
4215;DHT22;2121;48.062;7.850;2023-04-25T06:09:55;6.60;99.90
4215;DHT22;2121;48.062;7.850;2023-04-25T06:12:21;6.60;99.90
4215;DHT22;2121;48.062;7.850;2023-04-25T06:14:47;6.50;99.90
4215;DHT22;2121;48.062;7.850;2023-04-25T06:17:13;6.50;99.90
4215;DHT22;2121;48.062;7.850;2023-04-25T06:19:38;6.40;99.90
4215;DHT22;2121;48.062;7.850;2023-04-25T06:22:04;6.30;99.90
4215;DHT22;2121;48.062;7.850;2023-04-25T06:24:30;6.30;99.90
4215;DHT22;2121;48.062;7.850;2023-04-25T06:26:56;6.30;99.90
4215;DHT22;2121;48.062;7.850;2023-04-25T06:29:22;6.20;99.90
4215;DHT22;2121;48.062;7.850;2023-04-25T06:31:47;6.20;99.90
4215;DHT22;2121;48.062;7.850;2023-04-25T06:34:13;6.10;99.90
4215;DHT22;2121;48.062;7.850;2023-04-25T06:36:39;6.10;99.90
4215;DHT22;2121;48.062;7.850;2023-04-25T06:39:06;6.20;99.90
4215;DHT22;2121;48.062;7.850;2023-04-25T06:41:34;6.10;99.90
4215;DHT22;2121;48.062;7.850;2023-04-25T06:44:00;6.20;99.90
4215;DHT22;2121;48.062;7.850;2023-04-25T06:46:26;6.20;99.90
4215;DHT22;2121;48.062;7.850;2023-04-25T06:48:52;6.20;99.90
4215;DHT22;2121;48.062;7.850;2023-04-25T06:51:17;6.30;99.90
4215;DHT22;2121;48.062;7.850;2023-04-25T06:53:43;6.30;99.90
4215;DHT22;2121;48.062;7.850;2023-04-25T06:56:09;6.30;99.90
4215;DHT22;2121;48.062;7.850;2023-04-25T06:58:35;6.30;99.90
4215;DHT22;2121;48.062;7.850;2023-04-25T07:01:01;6.50;99.90
4215;DHT22;2121;48.062;7.850;2023-04-25T07:03:26;6.60;99.90
4215;DHT22;2121;48.062;7.850;2023-04-25T07:05:52;6.70;99.90
4215;DHT22;2121;48.062;7.850;2023-04-25T07:08:18;6.70;99.90
4215;DHT22;2121;48.062;7.850;2023-04-25T07:10:43;6.60;99.90
4215;DHT22;2121;48.062;7.850;2023-04-25T07:13:11;6.60;99.90
4215;DHT22;2121;48.062;7.850;2023-04-25T07:15:37;6.60;99.90
4215;DHT22;2121;48.062;7.850;2023-04-25T07:18:03;6.70;99.90
4215;DHT22;2121;48.062;7.850;2023-04-25T07:20:28;6.70;99.90
4215;DHT22;2121;48.062;7.850;2023-04-25T07:22:56;6.90;99.90
4215;DHT22;2121;48.062;7.850;2023-04-25T07:25:22;6.80;99.90
4215;DHT22;2121;48.062;7.850;2023-04-25T07:27:48;6.80;99.90
4215;DHT22;2121;48.062;7.850;2023-04-25T07:30:14;6.80;99.90
4215;DHT22;2121;48.062;7.850;2023-04-25T07:32:40;6.80;99.90
4215;DHT22;2121;48.062;7.850;2023-04-25T07:35:06;6.90;99.90
4215;DHT22;2121;48.062;7.850;2023-04-25T07:37:34;6.90;99.90
4215;DHT22;2121;48.062;7.850;2023-04-25T07:40:00;6.90;99.90
4215;DHT22;2121;48.062;7.850;2023-04-25T07:42:29;6.80;99.90
4215;DHT22;2121;48.062;7.850;2023-04-25T07:44:55;6.80;99.90
4215;DHT22;2121;48.062;7.850;2023-04-25T07:47:21;6.80;99.90
4215;DHT22;2121;48.062;7.850;2023-04-25T07:49:46;6.90;99.90
4215;DHT22;2121;48.062;7.850;2023-04-25T07:52:13;7.10;99.90
4215;DHT22;2121;48.062;7.850;2023-04-25T07:54:38;7.10;99.90
4215;DHT22;2121;48.062;7.850;2023-04-25T07:57:04;7.20;99.90
4215;DHT22;2121;48.062;7.850;2023-04-25T07:59:32;7.20;99.90
4215;DHT22;2121;48.062;7.850;2023-04-25T08:01:57;7.20;99.90
4215;DHT22;2121;48.062;7.850;2023-04-25T08:04:24;7.30;99.90
4215;DHT22;2121;48.062;7.850;2023-04-25T08:06:50;7.30;99.90
4215;DHT22;2121;48.062;7.850;2023-04-25T08:09:17;7.40;99.90
4215;DHT22;2121;48.062;7.850;2023-04-25T08:11:42;7.50;99.90
4215;DHT22;2121;48.062;7.850;2023-04-25T08:14:08;7.90;99.90
4215;DHT22;2121;48.062;7.850;2023-04-25T08:16:34;7.70;99.90
4215;DHT22;2121;48.062;7.850;2023-04-25T08:19:00;7.60;99.90
4215;DHT22;2121;48.062;7.850;2023-04-25T08:21:26;7.60;99.90
4215;DHT22;2121;48.062;7.850;2023-04-25T08:23:54;7.50;99.90
4215;DHT22;2121;48.062;7.850;2023-04-25T08:26:21;7.50;99.90
4215;DHT22;2121;48.062;7.850;2023-04-25T08:28:46;7.60;99.90
4215;DHT22;2121;48.062;7.850;2023-04-25T08:31:12;7.60;99.90
4215;DHT22;2121;48.062;7.850;2023-04-25T08:33:38;7.60;99.90
4215;DHT22;2121;48.062;7.850;2023-04-25T08:36:04;7.60;99.90
4215;DHT22;2121;48.062;7.850;2023-04-25T08:38:30;7.80;99.90
4215;DHT22;2121;48.062;7.850;2023-04-25T08:40:56;7.80;99.90
4215;DHT22;2121;48.062;7.850;2023-04-25T08:43:26;7.90;99.90
4215;DHT22;2121;48.062;7.850;2023-04-25T08:46:00;7.90;99.90
4215;DHT22;2121;48.062;7.850;2023-04-25T08:48:32;8.10;99.90
4215;DHT22;2121;48.062;7.850;2023-04-25T08:51:03;8.10;99.90
4215;DHT22;2121;48.062;7.850;2023-04-25T08:53:33;8.20;99.90
4215;DHT22;2121;48.062;7.850;2023-04-25T08:56:00;8.20;99.90
4215;DHT22;2121;48.062;7.850;2023-04-25T08:58:28;8.40;99.90
4215;DHT22;2121;48.062;7.850;2023-04-25T09:00:54;8.40;99.90
4215;DHT22;2121;48.062;7.850;2023-04-25T09:03:19;8.50;99.90
4215;DHT22;2121;48.062;7.850;2023-04-25T09:05:45;8.50;99.90
4215;DHT22;2121;48.062;7.850;2023-04-25T09:08:11;8.50;99.90
4215;DHT22;2121;48.062;7.850;2023-04-25T09:10:38;8.50;99.90
4215;DHT22;2121;48.062;7.850;2023-04-25T09:13:10;8.50;99.90
4215;DHT22;2121;48.062;7.850;2023-04-25T09:15:50;8.60;99.90
4215;DHT22;2121;48.062;7.850;2023-04-25T09:18:28;8.70;99.90
4215;DHT22;2121;48.062;7.850;2023-04-25T09:21:11;8.60;99.90
4215;DHT22;2121;48.062;7.850;2023-04-25T09:23:55;8.60;99.90
4215;DHT22;2121;48.062;7.850;2023-04-25T09:26:21;8.70;99.90
4215;DHT22;2121;48.062;7.850;2023-04-25T09:28:47;8.80;99.90
4215;DHT22;2121;48.062;7.850;2023-04-25T09:31:22;9.00;99.90
4215;DHT22;2121;48.062;7.850;2023-04-25T09:33:49;9.30;99.90
4215;DHT22;2121;48.062;7.850;2023-04-25T09:36:15;9.60;99.90
4215;DHT22;2121;48.062;7.850;2023-04-25T09:38:45;9.50;99.90
4215;DHT22;2121;48.062;7.850;2023-04-25T09:41:11;9.60;99.90
4215;DHT22;2121;48.062;7.850;2023-04-25T09:43:38;9.60;99.90
4215;DHT22;2121;48.062;7.850;2023-04-25T09:46:10;9.50;99.90
4215;DHT22;2121;48.062;7.850;2023-04-25T09:48:37;9.40;99.90
4215;DHT22;2121;48.062;7.850;2023-04-25T09:51:12;9.60;99.90
4215;DHT22;2121;48.062;7.850;2023-04-25T09:53:41;9.70;99.90
4215;DHT22;2121;48.062;7.850;2023-04-25T09:56:10;9.80;99.90
4215;DHT22;2121;48.062;7.850;2023-04-25T09:58:37;10.10;99.90
4215;DHT22;2121;48.062;7.850;2023-04-25T10:01:06;10.20;99.90
4215;DHT22;2121;48.062;7.850;2023-04-25T10:03:35;10.20;99.90
4215;DHT22;2121;48.062;7.850;2023-04-25T10:06:04;10.20;99.90
4215;DHT22;2121;48.062;7.850;2023-04-25T10:08:35;10.50;99.90
4215;DHT22;2121;48.062;7.850;2023-04-25T10:11:03;10.80;99.90
4215;DHT22;2121;48.062;7.850;2023-04-25T10:13:31;11.30;99.90
4215;DHT22;2121;48.062;7.850;2023-04-25T10:16:03;11.60;99.90
4215;DHT22;2121;48.062;7.850;2023-04-25T10:18:30;11.70;99.90
4215;DHT22;2121;48.062;7.850;2023-04-25T10:21:00;12.20;99.90
4215;DHT22;2121;48.062;7.850;2023-04-25T10:23:29;12.70;99.90
4215;DHT22;2121;48.062;7.850;2023-04-25T10:25:56;13.60;99.90
4215;DHT22;2121;48.062;7.850;2023-04-25T10:28:22;13.80;99.90
4215;DHT22;2121;48.062;7.850;2023-04-25T10:31:03;14.00;99.90
4215;DHT22;2121;48.062;7.850;2023-04-25T10:33:37;14.30;99.90
4215;DHT22;2121;48.062;7.850;2023-04-25T10:36:12;14.00;99.90
4215;DHT22;2121;48.062;7.850;2023-04-25T10:38:42;13.60;99.90
4215;DHT22;2121;48.062;7.850;2023-04-25T10:41:10;13.70;99.90
4215;DHT22;2121;48.062;7.850;2023-04-25T10:43:44;13.90;99.90
4215;DHT22;2121;48.062;7.850;2023-04-25T10:46:27;13.30;99.90
4215;DHT22;2121;48.062;7.850;2023-04-25T10:48:57;12.90;99.90
4215;DHT22;2121;48.062;7.850;2023-04-25T10:53:57;13.20;99.90
4215;DHT22;2121;48.062;7.850;2023-04-25T10:56:26;13.20;99.90
4215;DHT22;2121;48.062;7.850;2023-04-25T10:59:14;13.20;99.90
4215;DHT22;2121;48.062;7.850;2023-04-25T11:01:45;13.40;99.90
4215;DHT22;2121;48.062;7.850;2023-04-25T11:04:31;13.70;99.90
4215;DHT22;2121;48.062;7.850;2023-04-25T11:09:57;15.10;99.90
4215;DHT22;2121;48.062;7.850;2023-04-25T11:12:24;15.10;99.90
4215;DHT22;2121;48.062;7.850;2023-04-25T11:14:50;15.30;99.90
4215;DHT22;2121;48.062;7.850;2023-04-25T11:17:16;15.60;99.90
4215;DHT22;2121;48.062;7.850;2023-04-25T11:19:42;15.80;99.90
4215;DHT22;2121;48.062;7.850;2023-04-25T11:22:07;15.40;99.90
4215;DHT22;2121;48.062;7.850;2023-04-25T11:24:36;15.60;99.90
4215;DHT22;2121;48.062;7.850;2023-04-25T11:27:03;15.70;99.90
4215;DHT22;2121;48.062;7.850;2023-04-25T11:29:30;16.20;99.90
4215;DHT22;2121;48.062;7.850;2023-04-25T11:31:57;16.90;99.90
4215;DHT22;2121;48.062;7.850;2023-04-25T11:34:24;17.00;99.10
4215;DHT22;2121;48.062;7.850;2023-04-25T11:36:51;16.50;97.50
4215;DHT22;2121;48.062;7.850;2023-04-25T11:39:20;15.40;97.40
4215;DHT22;2121;48.062;7.850;2023-04-25T11:41:46;14.50;99.20
4215;DHT22;2121;48.062;7.850;2023-04-25T11:44:15;14.70;99.90
4215;DHT22;2121;48.062;7.850;2023-04-25T11:46:42;14.20;97.70
4215;DHT22;2121;48.062;7.850;2023-04-25T11:49:09;13.80;98.50
4215;DHT22;2121;48.062;7.850;2023-04-25T11:51:42;13.70;99.90
4215;DHT22;2121;48.062;7.850;2023-04-25T11:54:09;13.70;99.90
4215;DHT22;2121;48.062;7.850;2023-04-25T11:56:35;13.80;99.90
4215;DHT22;2121;48.062;7.850;2023-04-25T11:59:04;13.80;99.90
4215;DHT22;2121;48.062;7.850;2023-04-25T12:01:32;13.80;99.90
4215;DHT22;2121;48.062;7.850;2023-04-25T12:04:14;13.70;99.90
4215;DHT22;2121;48.062;7.850;2023-04-25T12:06:46;13.70;99.90
4215;DHT22;2121;48.062;7.850;2023-04-25T12:09:20;13.60;99.90
4215;DHT22;2121;48.062;7.850;2023-04-25T12:11:52;13.70;99.90
4215;DHT22;2121;48.062;7.850;2023-04-25T12:14:25;13.80;99.90
4215;DHT22;2121;48.062;7.850;2023-04-25T12:17:01;14.30;99.90
4215;DHT22;2121;48.062;7.850;2023-04-25T12:19:34;15.00;99.90
4215;DHT22;2121;48.062;7.850;2023-04-25T12:22:01;16.50;99.50
4215;DHT22;2121;48.062;7.850;2023-04-25T12:24:33;17.60;97.50
4215;DHT22;2121;48.062;7.850;2023-04-25T12:27:01;17.70;93.20
4215;DHT22;2121;48.062;7.850;2023-04-25T12:29:30;17.80;91.80
4215;DHT22;2121;48.062;7.850;2023-04-25T12:31:57;18.50;90.60
4215;DHT22;2121;48.062;7.850;2023-04-25T12:34:23;18.40;89.10
4215;DHT22;2121;48.062;7.850;2023-04-25T12:36:50;18.30;88.80
4215;DHT22;2121;48.062;7.850;2023-04-25T12:39:21;18.80;91.50
4215;DHT22;2121;48.062;7.850;2023-04-25T12:41:49;20.10;88.40
4215;DHT22;2121;48.062;7.850;2023-04-25T12:44:16;20.30;86.60
4215;DHT22;2121;48.062;7.850;2023-04-25T12:46:42;19.50;85.10
4215;DHT22;2121;48.062;7.850;2023-04-25T12:49:08;18.50;84.00
4215;DHT22;2121;48.062;7.850;2023-04-25T12:51:35;18.80;83.50
4215;DHT22;2121;48.062;7.850;2023-04-25T12:54:02;17.10;86.10
4215;DHT22;2121;48.062;7.850;2023-04-25T12:56:30;15.80;88.50
4215;DHT22;2121;48.062;7.850;2023-04-25T12:58:56;15.20;89.80
4215;DHT22;2121;48.062;7.850;2023-04-25T13:01:23;15.10;91.80
4215;DHT22;2121;48.062;7.850;2023-04-25T13:03:52;14.80;90.60
4215;DHT22;2121;48.062;7.850;2023-04-25T13:06:19;14.30;92.80
4215;DHT22;2121;48.062;7.850;2023-04-25T13:08:45;13.60;94.40
4215;DHT22;2121;48.062;7.850;2023-04-25T13:11:11;12.90;95.30
4215;DHT22;2121;48.062;7.850;2023-04-25T13:13:38;12.20;97.00
4215;DHT22;2121;48.062;7.850;2023-04-25T13:16:05;10.70;98.90
4215;DHT22;2121;48.062;7.850;2023-04-25T13:18:31;10.40;99.90
4215;DHT22;2121;48.062;7.850;2023-04-25T13:20:58;10.50;99.90
4215;DHT22;2121;48.062;7.850;2023-04-25T13:23:26;10.60;99.90
4215;DHT22;2121;48.062;7.850;2023-04-25T13:25:52;10.90;99.90
4215;DHT22;2121;48.062;7.850;2023-04-25T13:28:18;10.90;99.90
4215;DHT22;2121;48.062;7.850;2023-04-25T13:30:44;11.40;99.90
4215;DHT22;2121;48.062;7.850;2023-04-25T13:33:12;12.20;99.90
4215;DHT22;2121;48.062;7.850;2023-04-25T13:35:38;13.80;99.90
4215;DHT22;2121;48.062;7.850;2023-04-25T13:38:04;16.70;96.80
4215;DHT22;2121;48.062;7.850;2023-04-25T13:40:30;16.40;95.30
4215;DHT22;2121;48.062;7.850;2023-04-25T13:42:57;16.30;95.50
4215;DHT22;2121;48.062;7.850;2023-04-25T13:45:23;17.90;94.50
4215;DHT22;2121;48.062;7.850;2023-04-25T13:47:49;18.40;92.90
4215;DHT22;2121;48.062;7.850;2023-04-25T13:50:15;18.00;92.60
4215;DHT22;2121;48.062;7.850;2023-04-25T13:52:41;16.90;92.90
4215;DHT22;2121;48.062;7.850;2023-04-25T13:55:08;16.00;93.40
4215;DHT22;2121;48.062;7.850;2023-04-25T13:57:34;15.60;93.60
4215;DHT22;2121;48.062;7.850;2023-04-25T14:00:01;15.50;94.30
4215;DHT22;2121;48.062;7.850;2023-04-25T14:02:46;15.50;94.30
4215;DHT22;2121;48.062;7.850;2023-04-25T14:05:12;15.70;94.30
4215;DHT22;2121;48.062;7.850;2023-04-25T14:07:38;16.10;93.70
4215;DHT22;2121;48.062;7.850;2023-04-25T14:10:04;16.70;93.60
4215;DHT22;2121;48.062;7.850;2023-04-25T14:12:31;17.20;93.10
4215;DHT22;2121;48.062;7.850;2023-04-25T14:14:57;17.60;92.50
4215;DHT22;2121;48.062;7.850;2023-04-25T14:17:23;17.60;92.40
4215;DHT22;2121;48.062;7.850;2023-04-25T14:19:50;18.10;92.30
4215;DHT22;2121;48.062;7.850;2023-04-25T14:22:15;18.00;91.50
4215;DHT22;2121;48.062;7.850;2023-04-25T14:24:41;17.80;91.10
4215;DHT22;2121;48.062;7.850;2023-04-25T14:27:07;18.40;91.40
4215;DHT22;2121;48.062;7.850;2023-04-25T14:29:35;18.30;90.60
4215;DHT22;2121;48.062;7.850;2023-04-25T14:32:00;18.10;90.90
4215;DHT22;2121;48.062;7.850;2023-04-25T14:34:27;17.70;91.10
4215;DHT22;2121;48.062;7.850;2023-04-25T14:36:53;17.30;91.60
4215;DHT22;2121;48.062;7.850;2023-04-25T14:39:19;17.20;92.00
4215;DHT22;2121;48.062;7.850;2023-04-25T14:41:45;16.60;92.60
4215;DHT22;2121;48.062;7.850;2023-04-25T14:44:11;16.60;92.50
4215;DHT22;2121;48.062;7.850;2023-04-25T14:46:37;15.60;92.80
4215;DHT22;2121;48.062;7.850;2023-04-25T14:49:03;14.40;94.00
4215;DHT22;2121;48.062;7.850;2023-04-25T14:51:29;13.20;94.90
4215;DHT22;2121;48.062;7.850;2023-04-25T14:53:56;12.20;96.50
4215;DHT22;2121;48.062;7.850;2023-04-25T14:56:22;11.30;99.00
4215;DHT22;2121;48.062;7.850;2023-04-25T14:58:48;10.60;99.90
4215;DHT22;2121;48.062;7.850;2023-04-25T15:01:14;9.70;99.90
4215;DHT22;2121;48.062;7.850;2023-04-25T15:03:40;9.30;99.90
4215;DHT22;2121;48.062;7.850;2023-04-25T15:06:06;9.30;99.90
4215;DHT22;2121;48.062;7.850;2023-04-25T15:08:33;9.50;99.90
4215;DHT22;2121;48.062;7.850;2023-04-25T15:10:59;9.80;99.90
4215;DHT22;2121;48.062;7.850;2023-04-25T15:13:26;9.90;99.90
4215;DHT22;2121;48.062;7.850;2023-04-25T15:15:52;9.70;99.90
4215;DHT22;2121;48.062;7.850;2023-04-25T15:18:20;9.90;99.90
4215;DHT22;2121;48.062;7.850;2023-04-25T15:20:51;10.10;99.90
4215;DHT22;2121;48.062;7.850;2023-04-25T15:23:18;10.50;99.90
4215;DHT22;2121;48.062;7.850;2023-04-25T15:25:44;10.90;99.90
4215;DHT22;2121;48.062;7.850;2023-04-25T15:28:10;11.50;99.90
4215;DHT22;2121;48.062;7.850;2023-04-25T15:30:37;12.10;99.90
4215;DHT22;2121;48.062;7.850;2023-04-25T15:33:02;13.00;99.90
4215;DHT22;2121;48.062;7.850;2023-04-25T15:35:28;13.40;99.90
4215;DHT22;2121;48.062;7.850;2023-04-25T15:37:54;13.50;99.90
4215;DHT22;2121;48.062;7.850;2023-04-25T15:40:19;13.80;99.90
4215;DHT22;2121;48.062;7.850;2023-04-25T15:42:48;13.90;99.90
4215;DHT22;2121;48.062;7.850;2023-04-25T15:45:23;14.00;99.90
4215;DHT22;2121;48.062;7.850;2023-04-25T15:47:54;13.90;99.90
4215;DHT22;2121;48.062;7.850;2023-04-25T15:50:21;13.60;99.90
4215;DHT22;2121;48.062;7.850;2023-04-25T15:52:48;13.20;99.90
4215;DHT22;2121;48.062;7.850;2023-04-25T15:55:15;12.80;99.90
4215;DHT22;2121;48.062;7.850;2023-04-25T15:57:42;12.70;99.90
4215;DHT22;2121;48.062;7.850;2023-04-25T16:00:09;12.80;99.90
4215;DHT22;2121;48.062;7.850;2023-04-25T16:02:38;13.00;99.90
4215;DHT22;2121;48.062;7.850;2023-04-25T16:05:04;13.00;99.90
4215;DHT22;2121;48.062;7.850;2023-04-25T16:07:31;13.10;99.90
4215;DHT22;2121;48.062;7.850;2023-04-25T16:09:57;13.00;99.90
4215;DHT22;2121;48.062;7.850;2023-04-25T16:12:23;13.00;99.90
4215;DHT22;2121;48.062;7.850;2023-04-25T16:14:49;12.90;99.90
4215;DHT22;2121;48.062;7.850;2023-04-25T16:17:15;12.70;99.90